createdAt,value
2019-02-02T00:00:23.348Z,96.70
2019-02-02T00:02:51.998Z,96.90
2019-02-02T00:05:21.684Z,96.20
2019-02-02T00:07:53.361Z,96.30
2019-02-02T00:10:21.753Z,96.40
2019-02-02T00:12:50.174Z,96.40
2019-02-02T00:15:21.606Z,96.60
2019-02-02T00:17:50.208Z,96.80
2019-02-02T00:20:18.649Z,96.40
2019-02-02T00:22:48.845Z,96.80
2019-02-02T00:25:17.448Z,96.60
2019-02-02T00:27:45.770Z,96.50
2019-02-02T00:30:15.989Z,96.80
2019-02-02T00:32:48.507Z,96.80
2019-02-02T00:35:19.005Z,96.80
2019-02-02T00:37:48.727Z,96.90
2019-02-02T00:40:22.361Z,96.70
2019-02-02T00:42:51.118Z,97.00
2019-02-02T00:45:21.246Z,96.70
2019-02-02T00:47:49.732Z,96.90
2019-02-02T00:50:18.260Z,97.00
2019-02-02T00:52:47.005Z,96.80
2019-02-02T00:55:17.783Z,97.30
2019-02-02T00:57:53.088Z,97.50
2019-02-02T01:00:24.680Z,97.40
2019-02-02T01:02:53.400Z,97.20
2019-02-02T01:05:23.965Z,96.90
2019-02-02T01:07:53.800Z,97.10
2019-02-02T01:10:38.929Z,96.80
2019-02-02T01:13:07.744Z,96.90
2019-02-02T01:15:36.366Z,97.00
2019-02-02T01:18:08.127Z,97.30
2019-02-02T01:20:36.739Z,97.00
2019-02-02T01:23:05.937Z,97.20
2019-02-02T01:25:34.470Z,97.40
2019-02-02T01:28:05.372Z,97.30
2019-02-02T01:30:33.347Z,97.30
2019-02-02T01:33:01.918Z,97.20
2019-02-02T01:35:31.905Z,97.40
2019-02-02T01:38:03.331Z,97.20
2019-02-02T01:40:31.799Z,97.40
2019-02-02T01:43:00.234Z,97.10
2019-02-02T01:45:29.207Z,97.10
2019-02-02T01:47:57.845Z,96.90
2019-02-02T01:50:29.511Z,97.00
2019-02-02T01:52:58.151Z,96.80
2019-02-02T01:55:26.793Z,96.80
2019-02-02T01:57:55.234Z,97.10
2019-02-02T02:00:31.737Z,97.30
2019-02-02T02:03:03.473Z,97.40
2019-02-02T02:05:37.995Z,96.80
2019-02-02T02:08:06.448Z,96.80
2019-02-02T02:10:34.842Z,97.00
2019-02-02T02:13:03.360Z,96.60
2019-02-02T02:15:32.965Z,97.20
2019-02-02T02:18:01.370Z,97.00
2019-02-02T02:20:29.884Z,97.10
2019-02-02T02:22:58.338Z,96.80
2019-02-02T02:25:26.798Z,96.90
2019-02-02T02:27:55.160Z,96.80
2019-02-02T02:30:24.200Z,97.00
2019-02-02T02:32:53.173Z,97.10
2019-02-02T02:35:21.767Z,97.20
2019-02-02T02:37:50.178Z,97.40
2019-02-02T02:40:25.201Z,97.30
2019-02-02T02:42:53.819Z,97.10
2019-02-02T02:45:22.141Z,97.40
2019-02-02T02:47:50.717Z,97.20
2019-02-02T02:50:21.299Z,97.50
2019-02-02T02:52:52.701Z,97.30
2019-02-02T02:55:21.156Z,97.30
2019-02-02T02:57:49.789Z,97.70
2019-02-02T03:00:23.778Z,97.50
2019-02-02T03:02:52.187Z,97.50
2019-02-02T03:05:20.584Z,97.50
2019-02-02T03:07:50.473Z,97.00
2019-02-02T03:10:20.693Z,97.20
2019-02-02T03:12:49.106Z,97.40
2019-02-02T03:15:18.562Z,97.20
2019-02-02T03:17:47.873Z,97.40
2019-02-02T03:20:16.583Z,97.20
2019-02-02T03:22:45.058Z,97.00
2019-02-02T03:25:22.301Z,97.30
2019-02-02T03:27:53.483Z,97.00
2019-02-02T03:30:22.314Z,97.10
2019-02-02T03:32:50.793Z,96.90
2019-02-02T03:35:21.707Z,96.90
2019-02-02T03:37:50.264Z,97.00
2019-02-02T03:40:20.568Z,96.80
2019-02-02T03:42:48.944Z,96.90
2019-02-02T03:45:24.254Z,96.50
2019-02-02T03:47:53.705Z,96.60
2019-02-02T03:50:22.313Z,96.90
2019-02-02T03:52:50.695Z,96.80
2019-02-02T03:55:19.353Z,96.80
2019-02-02T03:57:48.001Z,96.90
2019-02-02T04:00:21.221Z,97.00
2019-02-02T04:02:49.649Z,96.90
2019-02-02T04:05:23.630Z,97.00
2019-02-02T04:07:52.229Z,97.00
2019-02-02T04:10:20.611Z,97.00
2019-02-02T04:12:49.039Z,96.80
2019-02-02T04:15:19.942Z,96.70
2019-02-02T04:17:48.370Z,96.80
2019-02-02T04:20:23.417Z,96.90
2019-02-02T04:22:52.162Z,97.10
2019-02-02T04:25:21.818Z,97.10
2019-02-02T04:27:50.396Z,97.10
2019-02-02T04:30:20.903Z,97.00
2019-02-02T04:32:49.394Z,97.20
2019-02-02T04:35:18.030Z,97.10
2019-02-02T04:37:46.469Z,97.20
2019-02-02T04:40:16.033Z,97.50
2019-02-02T04:42:45.682Z,97.00
2019-02-02T04:45:17.901Z,97.20
2019-02-02T04:47:46.379Z,97.10
2019-02-02T04:50:18.124Z,97.00
2019-02-02T04:52:46.538Z,97.10
2019-02-02T04:55:16.672Z,97.20
2019-02-02T04:57:45.107Z,97.20
2019-02-02T05:00:22.693Z,97.20
2019-02-02T05:02:51.096Z,97.80
2019-02-02T05:05:19.494Z,97.60
2019-02-02T05:07:48.260Z,97.50
2019-02-02T05:10:22.284Z,97.20
2019-02-02T05:12:51.503Z,97.10
2019-02-02T05:15:19.989Z,97.20
2019-02-02T05:17:48.625Z,97.20
2019-02-02T05:20:18.811Z,97.40
2019-02-02T05:22:47.544Z,97.50
2019-02-02T05:25:16.105Z,97.40
2019-02-02T05:27:44.576Z,97.20
2019-02-02T05:30:16.194Z,97.30
2019-02-02T05:32:44.616Z,97.20
2019-02-02T05:35:13.010Z,96.90
2019-02-02T05:37:41.399Z,97.10
2019-02-02T05:40:15.193Z,97.60
2019-02-02T05:42:43.645Z,97.00
2019-02-02T05:45:14.507Z,97.20
2019-02-02T05:47:42.987Z,97.30
2019-02-02T05:50:14.141Z,97.40
2019-02-02T05:52:42.512Z,97.40
2019-02-02T05:55:13.682Z,97.50
2019-02-02T05:57:42.183Z,97.30
2019-02-02T06:00:23.963Z,97.90
2019-02-02T06:02:52.416Z,97.50
2019-02-02T06:05:20.968Z,97.40
2019-02-02T06:07:49.397Z,97.40
2019-02-02T06:10:19.236Z,97.30
2019-02-02T06:12:47.598Z,97.20
2019-02-02T06:15:16.216Z,97.50
2019-02-02T06:17:45.974Z,97.30
2019-02-02T06:20:16.494Z,97.20
2019-02-02T06:22:44.827Z,97.50
2019-02-02T06:25:15.058Z,97.00
2019-02-02T06:27:43.780Z,97.10
2019-02-02T06:30:28.372Z,97.50
2019-02-02T06:32:56.706Z,97.40
2019-02-02T06:35:25.189Z,97.30
2019-02-02T06:37:53.599Z,97.40
2019-02-02T06:40:21.884Z,97.70
2019-02-02T06:42:50.346Z,97.80
2019-02-02T06:45:24.687Z,97.80
2019-02-02T06:47:53.207Z,97.90
2019-02-02T06:50:21.628Z,97.60
2019-02-02T06:52:50.025Z,98.00
2019-02-02T06:55:18.332Z,97.90
2019-02-02T06:57:46.908Z,97.90
2019-02-02T07:00:17.577Z,97.70
2019-02-02T07:02:46.084Z,97.90
2019-02-02T07:05:14.584Z,97.90
2019-02-02T07:07:42.953Z,98.00
2019-02-02T07:10:17.169Z,98.00
2019-02-02T07:12:45.783Z,98.00
2019-02-02T07:15:19.970Z,98.00
2019-02-02T07:17:48.558Z,98.00
2019-02-02T07:20:17.050Z,98.10
2019-02-02T07:22:45.533Z,98.00
2019-02-02T07:25:13.905Z,98.10
2019-02-02T07:27:42.267Z,98.00
2019-02-02T07:30:28.406Z,98.00
2019-02-02T07:32:49.198Z,97.90
2019-02-02T07:35:17.903Z,98.10
2019-02-02T07:37:46.335Z,97.90
2019-02-02T07:40:17.973Z,97.80
2019-02-02T07:42:46.549Z,97.90
2019-02-02T07:45:21.009Z,97.90
2019-02-02T07:47:49.578Z,98.00
2019-02-02T07:50:18.238Z,98.00
2019-02-02T07:52:46.608Z,97.80
2019-02-02T07:55:17.175Z,98.00
2019-02-02T07:57:45.575Z,98.10
2019-02-02T08:00:17.156Z,98.20
2019-02-02T08:02:51.806Z,97.90
2019-02-02T08:05:21.678Z,98.10
2019-02-02T08:07:50.184Z,97.70
2019-02-02T08:10:18.778Z,97.50
2019-02-02T08:12:47.261Z,97.30
2019-02-02T08:15:24.373Z,97.30
2019-02-02T08:17:52.773Z,97.30
2019-02-02T08:20:21.457Z,97.30
2019-02-02T08:22:49.868Z,97.40
2019-02-02T08:25:18.942Z,97.50
2019-02-02T08:27:50.277Z,97.80
2019-02-02T08:30:21.070Z,97.80
2019-02-02T08:32:49.939Z,97.60
2019-02-02T08:35:19.978Z,97.60
2019-02-02T08:37:50.140Z,97.60
2019-02-02T08:40:19.654Z,97.40
2019-02-02T08:42:49.806Z,97.30
2019-02-02T08:45:21.325Z,97.10
2019-02-02T08:47:50.181Z,97.20
2019-02-02T08:50:27.593Z,97.10
2019-02-02T08:52:56.184Z,96.90
2019-02-02T08:55:24.743Z,97.10
2019-02-02T08:57:54.180Z,97.10
2019-02-02T09:00:25.780Z,97.10
2019-02-02T09:02:54.236Z,97.00
2019-02-02T09:05:26.981Z,96.80
2019-02-02T09:07:58.645Z,97.10
2019-02-02T09:10:29.789Z,97.10
2019-02-02T09:12:58.619Z,97.20
2019-02-02T09:15:27.923Z,97.10
2019-02-02T09:17:58.798Z,97.00
2019-02-02T09:20:27.284Z,97.20
2019-02-02T09:23:04.068Z,96.70
2019-02-02T09:25:27.516Z,96.70
2019-02-02T09:27:55.963Z,96.80
2019-02-02T09:30:29.865Z,96.90
2019-02-02T09:32:58.269Z,96.90
2019-02-02T09:35:26.997Z,96.50
2019-02-02T09:37:56.049Z,96.90
2019-02-02T09:40:25.727Z,96.50
2019-02-02T09:42:54.310Z,96.80
2019-02-02T09:45:24.108Z,96.70
2019-02-02T09:47:52.503Z,96.50
2019-02-02T09:50:23.617Z,96.70
2019-02-02T09:52:52.156Z,96.60
2019-02-02T09:55:23.178Z,96.40
2019-02-02T09:57:55.164Z,96.30
2019-02-02T10:00:30.771Z,95.90
2019-02-02T10:02:59.231Z,96.20
2019-02-02T10:05:28.015Z,96.00
2019-02-02T10:07:56.601Z,96.00
2019-02-02T10:10:30.059Z,96.00
2019-02-02T10:12:58.507Z,96.20
2019-02-02T10:15:27.017Z,95.70
2019-02-02T10:17:55.549Z,95.50
2019-02-02T10:20:28.916Z,95.50
2019-02-02T10:22:58.257Z,95.40
2019-02-02T10:25:28.444Z,94.80
2019-02-02T10:27:56.866Z,94.70
2019-02-02T10:30:30.425Z,94.60
2019-02-02T10:33:00.838Z,94.20
2019-02-02T10:35:29.276Z,94.40
2019-02-02T10:37:57.836Z,93.90
2019-02-02T10:40:26.429Z,94.10
2019-02-02T10:42:55.435Z,93.90
2019-02-02T10:45:23.868Z,94.60
2019-02-02T10:47:52.236Z,94.60
2019-02-02T10:50:22.004Z,94.00
2019-02-02T10:52:50.412Z,93.60
2019-02-02T10:55:18.835Z,94.00
2019-02-02T10:57:47.473Z,94.50
2019-02-02T11:00:21.522Z,94.00
2019-02-02T11:02:49.943Z,93.10
2019-02-02T11:05:18.764Z,92.70
2019-02-02T11:07:47.870Z,93.00
2019-02-02T11:10:24.720Z,92.20
2019-02-02T11:12:53.331Z,91.40
2019-02-02T11:15:22.994Z,91.70
2019-02-02T11:17:51.589Z,91.00
2019-02-02T11:20:23.384Z,90.90
2019-02-02T11:22:51.833Z,90.50
2019-02-02T11:25:20.226Z,90.60
2019-02-02T11:27:48.791Z,90.80
2019-02-02T11:30:19.034Z,90.40
2019-02-02T11:32:47.733Z,90.40
2019-02-02T11:35:22.562Z,90.80
2019-02-02T11:37:51.245Z,90.70
2019-02-02T11:40:30.687Z,90.70
2019-02-02T11:42:59.549Z,90.20
2019-02-02T11:45:28.087Z,90.70
2019-02-02T11:47:59.857Z,90.60
2019-02-02T11:50:28.919Z,90.70
2019-02-02T11:52:57.697Z,90.70
2019-02-02T11:55:27.358Z,90.70
2019-02-02T11:57:56.248Z,91.10
2019-02-02T12:00:29.915Z,92.00
2019-02-02T12:03:04.205Z,91.80
2019-02-02T12:05:31.657Z,91.30
2019-02-02T12:08:00.137Z,92.00
2019-02-02T12:10:33.116Z,92.00
2019-02-02T12:13:01.543Z,92.40
2019-02-02T12:15:29.916Z,92.50
2019-02-02T12:17:58.408Z,93.00
2019-02-02T12:20:26.764Z,92.90
2019-02-02T12:22:56.812Z,92.40
2019-02-02T12:25:25.223Z,92.80
2019-02-02T12:27:53.610Z,92.10
2019-02-02T12:30:24.455Z,92.80
2019-02-02T12:32:52.805Z,93.20
2019-02-02T12:35:23.727Z,92.70
2019-02-02T12:37:52.056Z,92.30
2019-02-02T12:40:22.595Z,91.90
2019-02-02T12:42:51.251Z,92.10
2019-02-02T12:45:35.350Z,91.80
2019-02-02T12:48:04.050Z,91.90
2019-02-02T12:50:32.673Z,91.90
2019-02-02T12:53:01.051Z,91.20
2019-02-02T12:55:29.726Z,89.10
2019-02-02T12:57:58.357Z,89.70
2019-02-02T13:00:26.695Z,87.40
2019-02-02T13:02:55.081Z,85.80
2019-02-02T13:05:23.806Z,84.30
2019-02-02T13:07:52.365Z,84.00
2019-02-02T13:10:28.836Z,82.80
2019-02-02T13:12:57.522Z,80.90
2019-02-02T13:15:26.004Z,83.80
2019-02-02T13:17:54.413Z,83.80
2019-02-02T13:20:23.180Z,85.60
2019-02-02T13:22:51.625Z,85.60
2019-02-02T13:25:24.235Z,86.80
2019-02-02T13:27:52.726Z,87.00
2019-02-02T13:30:26.897Z,87.30
2019-02-02T13:32:55.284Z,87.50
2019-02-02T13:35:24.632Z,88.50
2019-02-02T13:37:53.258Z,88.40
2019-02-02T13:40:23.452Z,89.00
2019-02-02T13:42:52.054Z,89.90
2019-02-02T13:45:21.927Z,89.30
2019-02-02T13:47:50.867Z,90.00
2019-02-02T13:50:19.639Z,89.90
2019-02-02T13:52:49.672Z,90.00
2019-02-02T13:55:18.192Z,90.00
2019-02-02T13:57:46.772Z,90.00
2019-02-02T14:00:21.314Z,90.10
2019-02-02T14:03:01.444Z,90.40
2019-02-02T14:05:20.155Z,90.60
2019-02-02T14:07:48.714Z,90.80
2019-02-02T14:10:22.166Z,91.00
2019-02-02T14:12:50.775Z,90.90
2019-02-02T14:15:20.691Z,91.00
2019-02-02T14:17:49.345Z,91.00
2019-02-02T14:20:18.108Z,91.10
2019-02-02T14:22:46.683Z,91.50
2019-02-02T14:25:16.278Z,91.40
2019-02-02T14:27:45.099Z,91.40
2019-02-02T14:30:19.868Z,91.40
2019-02-02T14:32:48.526Z,91.80
2019-02-02T14:35:19.360Z,92.00
2019-02-02T14:37:48.259Z,91.80
2019-02-02T14:40:18.703Z,92.00
2019-02-02T14:42:47.168Z,92.10
2019-02-02T14:45:17.546Z,92.20
2019-02-02T14:47:46.123Z,92.20
2019-02-02T14:50:18.705Z,92.30
2019-02-02T14:52:46.981Z,92.30
2019-02-02T14:55:29.593Z,92.50
2019-02-02T14:57:58.354Z,92.30
2019-02-02T15:00:30.566Z,92.40
2019-02-02T15:03:03.272Z,92.50
2019-02-02T15:05:42.229Z,92.50
2019-02-02T15:08:01.094Z,92.50
2019-02-02T15:10:29.549Z,92.60
2019-02-02T15:12:57.951Z,92.90
2019-02-02T15:15:27.371Z,92.80
2019-02-02T15:17:55.774Z,93.10
2019-02-02T15:20:26.736Z,93.00
2019-02-02T15:22:55.209Z,92.80
2019-02-02T15:25:23.573Z,92.70
2019-02-02T15:27:52.214Z,92.90
2019-02-02T15:30:26.406Z,93.10
2019-02-02T15:32:54.940Z,93.10
2019-02-02T15:35:23.778Z,93.10
2019-02-02T15:37:52.470Z,93.10
2019-02-02T15:40:21.229Z,93.00
2019-02-02T15:42:49.731Z,93.20
2019-02-02T15:45:23.237Z,93.10
2019-02-02T15:47:51.926Z,93.40
2019-02-02T15:50:21.588Z,93.50
2019-02-02T15:52:50.280Z,93.60
2019-02-02T15:55:20.490Z,94.00
2019-02-02T15:57:49.013Z,93.70
2019-02-02T16:00:20.912Z,93.80
2019-02-02T16:02:49.477Z,93.80
2019-02-02T16:05:19.450Z,93.70
2019-02-02T16:07:48.029Z,93.90
2019-02-02T16:10:21.988Z,93.90
2019-02-02T16:12:50.736Z,93.90
2019-02-02T16:15:19.318Z,93.80
2019-02-02T16:17:47.827Z,93.70
2019-02-02T16:20:25.041Z,93.70
2019-02-02T16:22:53.644Z,94.00
2019-02-02T16:25:22.285Z,94.30
2019-02-02T16:27:51.058Z,94.10
2019-02-02T16:30:21.721Z,94.10
2019-02-02T16:32:50.335Z,94.10
2019-02-02T16:35:18.959Z,94.30
2019-02-02T16:37:47.557Z,94.30
2019-02-02T16:40:21.390Z,94.10
2019-02-02T16:42:53.334Z,94.20
2019-02-02T16:45:31.397Z,94.10
2019-02-02T16:47:59.983Z,94.20
2019-02-02T16:50:28.611Z,94.00
2019-02-02T16:52:58.312Z,94.00
2019-02-02T16:55:27.036Z,93.90
2019-02-02T16:57:55.876Z,94.00
2019-02-02T17:00:27.750Z,94.20
2019-02-02T17:02:59.456Z,94.10
2019-02-02T17:05:28.085Z,94.10
2019-02-02T17:07:56.694Z,94.10
2019-02-02T17:10:27.339Z,93.80
2019-02-02T17:12:56.108Z,94.10
2019-02-02T17:15:24.640Z,94.30
2019-02-02T17:17:53.435Z,95.00
2019-02-02T17:20:39.431Z,94.40
2019-02-02T17:23:08.107Z,94.50
2019-02-02T17:25:36.802Z,94.40
2019-02-02T17:28:05.897Z,94.80
2019-02-02T17:30:34.468Z,94.60
2019-02-02T17:33:08.597Z,95.00
2019-02-02T17:35:37.023Z,95.40
2019-02-02T17:38:05.705Z,94.90
2019-02-02T17:40:34.179Z,95.20
2019-02-02T17:43:02.656Z,95.60
2019-02-02T17:45:31.361Z,95.60
2019-02-02T17:48:00.300Z,95.50
2019-02-02T17:50:30.300Z,95.50
2019-02-02T17:52:58.709Z,95.30
2019-02-02T17:55:27.450Z,95.50
2019-02-02T17:57:55.827Z,95.50
2019-02-02T18:00:34.523Z,95.50
2019-02-02T18:03:02.949Z,95.40
2019-02-02T18:05:31.977Z,95.40
2019-02-02T18:08:00.747Z,95.30
2019-02-02T18:10:29.475Z,95.30
2019-02-02T18:12:58.034Z,95.20
2019-02-02T18:15:26.544Z,95.30
2019-02-02T18:17:55.295Z,95.30
2019-02-02T18:20:24.376Z,95.00
2019-02-02T18:22:53.052Z,95.10
2019-02-02T18:25:21.957Z,95.30
2019-02-02T18:27:50.651Z,95.00
2019-02-02T18:30:21.863Z,95.40
2019-02-02T18:32:53.594Z,95.40
2019-02-02T18:35:22.283Z,95.30
2019-02-02T18:37:50.748Z,95.40
2019-02-02T18:40:21.915Z,95.30
2019-02-02T18:42:50.429Z,95.80
2019-02-02T18:45:24.153Z,95.60
2019-02-02T18:47:52.810Z,95.50
2019-02-02T18:50:21.301Z,95.20
2019-02-02T18:52:51.813Z,95.70
2019-02-02T18:55:32.410Z,95.30
2019-02-02T18:58:00.983Z,95.40
2019-02-02T19:00:29.490Z,95.20
2019-02-02T19:02:58.071Z,95.30
2019-02-02T19:05:28.968Z,95.40
2019-02-02T19:07:57.038Z,95.30
2019-02-02T19:10:31.144Z,95.30
2019-02-02T19:12:59.704Z,95.20
2019-02-02T19:15:28.193Z,95.20
2019-02-02T19:17:56.680Z,94.90
2019-02-02T19:20:28.410Z,95.00
2019-02-02T19:22:57.403Z,95.40
2019-02-02T19:25:26.250Z,95.50
2019-02-02T19:27:55.001Z,95.50
2019-02-02T19:30:28.899Z,95.50
2019-02-02T19:32:57.443Z,95.30
2019-02-02T19:35:26.094Z,95.40
2019-02-02T19:37:54.752Z,95.40
2019-02-02T19:40:23.469Z,95.50
2019-02-02T19:42:52.219Z,95.60
2019-02-02T19:45:26.433Z,95.70
2019-02-02T19:47:55.305Z,95.60
2019-02-02T19:50:25.828Z,95.40
2019-02-02T19:52:54.277Z,95.40
2019-02-02T19:55:27.316Z,95.50
2019-02-02T19:57:55.951Z,95.60
2019-02-02T20:00:26.832Z,95.60
2019-02-02T20:02:55.817Z,95.40
2019-02-02T20:05:29.032Z,95.60
2019-02-02T20:07:57.867Z,95.40
2019-02-02T20:10:26.734Z,95.30
2019-02-02T20:12:55.405Z,95.50
2019-02-02T20:15:26.538Z,95.60
2019-02-02T20:18:09.347Z,95.60
2019-02-02T20:20:29.157Z,95.60
2019-02-02T20:22:58.124Z,95.80
2019-02-02T20:25:30.034Z,95.60
2019-02-02T20:28:01.777Z,95.80
2019-02-02T20:30:32.059Z,95.70
2019-02-02T20:33:00.609Z,95.60
2019-02-02T20:35:40.369Z,95.60
2019-02-02T20:37:59.713Z,95.60
2019-02-02T20:40:28.380Z,95.80
2019-02-02T20:42:56.995Z,95.70
2019-02-02T20:45:28.335Z,96.20
2019-02-02T20:47:57.393Z,96.10
2019-02-02T20:50:26.489Z,96.10
2019-02-02T20:52:55.387Z,96.10
2019-02-02T20:55:26.510Z,96.10
2019-02-02T20:57:55.191Z,96.00
2019-02-02T21:00:26.071Z,96.30
2019-02-02T21:02:56.618Z,96.30
2019-02-02T21:05:25.982Z,96.10
2019-02-02T21:07:54.826Z,96.20
2019-02-02T21:10:24.830Z,96.50
2019-02-02T21:12:53.530Z,96.50
2019-02-02T21:15:22.535Z,96.70
2019-02-02T21:17:54.347Z,97.40
2019-02-02T21:20:25.739Z,96.50
2019-02-02T21:22:54.386Z,96.90
2019-02-02T21:25:22.928Z,97.00
2019-02-02T21:27:51.836Z,97.00
2019-02-02T21:30:25.664Z,96.70
2019-02-02T21:32:58.685Z,96.60
2019-02-02T21:35:27.312Z,97.00
2019-02-02T21:37:58.842Z,96.70
2019-02-02T21:40:32.770Z,96.70
2019-02-02T21:43:03.978Z,96.70
2019-02-02T21:45:32.732Z,97.10
2019-02-02T21:48:01.441Z,97.40
2019-02-02T21:50:30.065Z,97.40
2019-02-02T21:52:58.824Z,97.50
2019-02-02T21:55:29.584Z,97.70
2019-02-02T21:58:01.429Z,97.80
2019-02-02T22:00:35.770Z,97.70
2019-02-02T22:03:05.669Z,97.70
2019-02-02T22:05:34.160Z,97.70
2019-02-02T22:08:02.824Z,97.70
2019-02-02T22:10:32.135Z,97.50
2019-02-02T22:13:00.997Z,97.60
2019-02-02T22:15:30.440Z,97.30
2019-02-02T22:17:59.538Z,97.40
2019-02-02T22:20:28.336Z,97.30
2019-02-02T22:22:56.877Z,97.30
2019-02-02T22:25:28.516Z,97.60
2019-02-02T22:27:57.022Z,97.80
2019-02-02T22:30:30.743Z,97.60
2019-02-02T22:32:59.329Z,97.40
2019-02-02T22:35:28.095Z,97.50
2019-02-02T22:37:58.898Z,97.40
2019-02-02T22:40:28.468Z,97.50
2019-02-02T22:42:57.102Z,97.40
2019-02-02T22:45:25.717Z,97.30
2019-02-02T22:47:54.253Z,97.30
2019-02-02T22:50:24.941Z,97.40
2019-02-02T22:52:53.789Z,97.40
2019-02-02T22:55:23.470Z,97.60
2019-02-02T22:57:52.003Z,97.70
2019-02-02T23:00:34.305Z,97.80
2019-02-02T23:03:03.130Z,97.50
2019-02-02T23:06:06.891Z,97.90
2019-02-02T23:08:44.970Z,97.70
2019-02-02T23:11:20.161Z,97.90
2019-02-02T23:13:58.137Z,97.50
2019-02-02T23:16:27.917Z,97.80
2019-02-02T23:18:56.705Z,97.40
2019-02-02T23:21:25.191Z,97.30
2019-02-02T23:23:54.164Z,97.60
2019-02-02T23:26:22.793Z,97.70
2019-02-02T23:28:51.758Z,97.80
2019-02-02T23:31:20.945Z,97.80
2019-02-02T23:33:49.458Z,98.00
2019-02-02T23:36:18.317Z,98.20
2019-02-02T23:38:46.957Z,98.00
2019-02-02T23:41:15.501Z,98.00
2019-02-02T23:43:44.066Z,97.80
2019-02-02T23:46:12.858Z,98.00
2019-02-02T23:48:41.401Z,98.10
2019-02-02T23:51:09.793Z,98.20
2019-02-02T23:53:38.361Z,98.10
2019-02-02T23:56:07.138Z,97.80
2019-02-02T23:58:35.787Z,97.90
